Terminal Aerodrome Forecast
Issued by NWS

Home | Current Version | Previous Version | Text Only | Print | Product List | Glossary On
Versions: 1 2 3 4 5 6 7 8 9 10 11 12 13 14 15 16 17 18 19 20
000
FTUS46 KSEW 191100
TAFPAE
TAF
KPAE 191120Z 1912/2012 12008KT P6SM BKN100 BKN200
     FM191400 14006KT P6SM SCT050 BKN100 OVC200
     FM191700 17013KT P6SM -RA BKN045 OVC060
     FM191900 17018G28KT P6SM -RA OVC045
     FM192200 18017G24KT P6SM -SHRA BKN040 OVC060
     FM200600 17014KT P6SM -SHRA BKN040 BKN060=

USA.gov is the U.S. government's official web portal to all federal, state and local government web resources and services.